Time;durP1;ratioP1;P1;durP2;ratioP2;P2;SDS_P1;SDS_P2;PMS_P1;PMS_P2;Temp;Humidity;BMP_temperature;BMP_pressure;BME280_temperature;BME280_humidity;BME280_pressure;Samples;Min_cycle;Max_cycle;Signal;HPM_P1;HPM_P2
2022/04/02 00:01:46;;;;;;;4.20;1.87;;;2.90;58.80;;;;;;4122696;28;20513;-82
2022/04/02 00:03:48;;;;;;;3.30;1.50;;;2.80;59.20;;;;;;4133597;28;20476;-82
2022/04/02 00:05:50;;;;;;;2.57;1.20;;;2.80;59.40;;;;;;4139088;28;20459;-82
2022/04/02 00:07:53;;;;;;;4.97;1.43;;;2.80;59.50;;;;;;4137118;28;20815;-82
2022/04/02 00:09:55;;;;;;;4.97;1.97;;;2.70;59.50;;;;;;4133283;28;20464;-82
2022/04/02 00:11:57;;;;;;;3.77;1.33;;;2.70;59.50;;;;;;4143390;28;20916;-80
2022/04/02 00:13:59;;;;;;;4.77;1.60;;;2.70;59.70;;;;;;4139041;28;20529;-79
2022/04/02 00:16:01;;;;;;;4.37;1.50;;;2.70;60.00;;;;;;4133202;28;20489;-81
2022/04/02 00:18:02;;;;;;;6.27;1.67;;;2.60;60.30;;;;;;4132016;28;20467;-80
2022/04/02 00:20:05;;;;;;;4.20;1.50;;;2.60;60.40;;;;;;4132172;28;20907;-80
2022/04/02 00:22:07;;;;;;;5.70;1.57;;;2.60;60.60;;;;;;4139984;28;20933;-80
2022/04/02 00:24:10;;;;;;;4.40;1.47;;;2.50;60.80;;;;;;4128962;28;20499;-80
2022/04/02 00:26:13;;;;;;;3.53;1.57;;;2.50;61.10;;;;;;4130388;28;20458;-80
2022/04/02 00:28:15;;;;;;;5.30;1.40;;;2.50;61.60;;;;;;4130005;28;20467;-81
2022/04/02 00:30:17;;;;;;;4.40;1.60;;;2.40;61.90;;;;;;4131035;28;20478;-80
2022/04/02 00:32:18;;;;;;;9.10;1.70;;;2.40;62.00;;;;;;4131571;28;20543;-80
2022/04/02 00:34:21;;;;;;;4.23;1.97;;;2.30;62.80;;;;;;4117666;28;20611;-80
2022/04/02 00:36:23;;;;;;;4.70;1.50;;;2.30;63.10;;;;;;4124679;28;20528;-80
2022/04/02 00:38:24;;;;;;;14.10;1.70;;;2.30;63.20;;;;;;4141484;28;20477;-80
2022/04/02 00:40:29;;;;;;;4.00;1.37;;;2.20;63.40;;;;;;4131636;28;20598;-80
2022/04/02 00:42:30;;;;;;;5.43;2.03;;;2.20;63.90;;;;;;4119213;28;20483;-80
2022/04/02 00:44:32;;;;;;;2.90;1.40;;;2.10;64.40;;;;;;4130369;28;20458;-80
2022/04/02 00:46:34;;;;;;;3.53;1.33;;;2.10;65.10;;;;;;4131623;28;20479;-80
2022/04/02 00:48:36;;;;;;;3.60;1.70;;;2.00;65.50;;;;;;4126168;28;20466;-80
2022/04/02 00:50:37;;;;;;;7.57;1.93;;;2.00;66.00;;;;;;4132329;28;20477;-83
2022/04/02 00:52:40;;;;;;;4.77;2.00;;;1.90;66.60;;;;;;4142380;28;20481;-82
2022/04/02 00:54:42;;;;;;;3.47;1.23;;;1.90;67.10;;;;;;4136578;28;20470;-83
2022/04/02 00:56:45;;;;;;;3.73;1.87;;;1.90;67.60;;;;;;4132387;28;20475;-83
2022/04/02 00:58:47;;;;;;;3.30;1.60;;;1.80;68.10;;;;;;4131189;28;20454;-83
2022/04/02 01:00:48;;;;;;;3.10;1.60;;;1.80;68.70;;;;;;4129111;28;20544;-83
2022/04/02 01:02:51;;;;;;;2.93;1.70;;;2.10;69.40;;;;;;4132084;28;20999;-82
2022/04/02 01:04:54;;;;;;;3.80;1.70;;;1.80;69.60;;;;;;4130325;28;20459;-82
2022/04/02 01:06:56;;;;;;;4.73;1.80;;;1.70;70.00;;;;;;4125629;28;20891;-82
2022/04/02 01:08:58;;;;;;;4.07;1.43;;;1.70;70.40;;;;;;4130638;28;20467;-82
2022/04/02 01:11:00;;;;;;;5.17;1.37;;;1.70;70.80;;;;;;4133666;28;20454;-83
2022/04/02 01:13:04;;;;;;;3.63;1.20;;;1.70;71.30;;;;;;4134648;28;20544;-83
2022/04/02 01:15:06;;;;;;;6.87;1.43;;;1.70;71.70;;;;;;4136439;28;20463;-82
2022/04/02 01:17:08;;;;;;;5.47;1.70;;;1.60;72.10;;;;;;4136044;28;20450;-83
2022/04/02 01:19:10;;;;;;;3.63;1.60;;;1.60;72.60;;;;;;4137017;28;20467;-83
2022/04/02 01:21:12;;;;;;;2.53;1.40;;;1.60;73.10;;;;;;4130981;28;20498;-83
2022/04/02 01:23:15;;;;;;;4.30;1.67;;;1.60;73.50;;;;;;4129761;28;20483;-83
2022/04/02 01:25:17;;;;;;;3.03;1.60;;;1.60;73.90;;;;;;4130712;28;20457;-82
2022/04/02 01:27:19;;;;;;;5.30;1.50;;;1.50;74.30;;;;;;4128385;28;20524;-83
2022/04/02 01:29:20;;;;;;;3.13;1.40;;;1.50;74.70;;;;;;4131123;28;20466;-83
2022/04/02 01:31:23;;;;;;;6.67;1.57;;;1.50;75.30;;;;;;4138544;28;20477;-82
2022/04/02 01:33:25;;;;;;;3.23;1.40;;;1.90;76.30;;;;;;4123154;28;21054;-83
2022/04/02 01:35:27;;;;;;;5.67;1.53;;;1.50;76.20;;;;;;4121323;28;20549;-83
2022/04/02 01:37:29;;;;;;;5.93;1.80;;;1.40;76.60;;;;;;4132086;28;20463;-83
2022/04/02 01:39:32;;;;;;;3.33;1.50;;;1.40;76.80;;;;;;4131333;28;20474;-83
2022/04/02 01:41:33;;;;;;;6.00;1.60;;;1.40;77.00;;;;;;4134594;28;20501;-83
2022/04/02 01:43:35;;;;;;;4.27;1.50;;;1.40;76.90;;;;;;4134399;28;20530;-82
2022/04/02 01:45:37;;;;;;;3.10;1.50;;;1.40;77.40;;;;;;4135487;28;20450;-82
2022/04/02 01:47:39;;;;;;;6.77;1.50;;;1.40;78.00;;;;;;4139447;28;20449;-82
2022/04/02 01:49:41;;;;;;;3.93;1.90;;;1.30;78.10;;;;;;4138228;28;20520;-82
2022/04/02 01:51:44;;;;;;;3.20;1.47;;;1.30;78.70;;;;;;4124554;28;20959;-82
2022/04/02 01:53:45;;;;;;;5.33;1.70;;;1.30;79.40;;;;;;4131442;28;20483;-82
2022/04/02 01:55:49;;;;;;;3.20;1.63;;;1.30;79.40;;;;;;4138457;28;20444;-82
2022/04/02 01:57:51;;;;;;;7.83;1.90;;;1.20;79.50;;;;;;4134685;28;20469;-82
2022/04/02 01:59:53;;;;;;;5.53;1.40;;;1.20;79.80;;;;;;4135353;28;20508;-82
2022/04/02 02:01:54;;;;;;;5.03;1.87;;;1.20;79.60;;;;;;4133989;28;20481;-82
2022/04/02 02:03:56;;;;;;;6.13;2.03;;;1.20;79.70;;;;;;4134860;28;20472;-83
2022/04/02 02:05:58;;;;;;;6.23;2.13;;;1.20;80.40;;;;;;4134746;28;20663;-82
2022/04/02 02:08:00;;;;;;;6.60;1.97;;;1.20;80.30;;;;;;4134988;28;20901;-82
2022/04/02 02:10:02;;;;;;;6.33;1.60;;;1.20;80.90;;;;;;4132299;28;20471;-82
2022/04/02 02:12:05;;;;;;;6.00;1.70;;;1.20;81.30;;;;;;4132716;28;20945;-82
2022/04/02 02:14:07;;;;;;;5.40;2.10;;;1.10;81.00;;;;;;4133535;28;20538;-82
2022/04/02 02:16:09;;;;;;;3.13;1.50;;;1.10;81.20;;;;;;4134573;28;20543;-82
2022/04/02 02:18:11;;;;;;;4.50;1.60;;;1.10;81.30;;;;;;4132564;28;20506;-83
2022/04/02 02:20:14;;;;;;;7.13;2.10;;;1.10;81.80;;;;;;4134984;28;20492;-82
2022/04/02 02:22:17;;;;;;;3.63;1.70;;;1.10;82.20;;;;;;4133691;28;20523;-82
2022/04/02 02:24:20;;;;;;;2.57;1.30;;;1.00;82.40;;;;;;4128961;28;20529;-82
2022/04/02 02:26:21;;;;;;;6.10;1.80;;;1.00;82.40;;;;;;4135736;28;21032;-82
2022/04/02 02:28:25;;;;;;;2.93;1.40;;;1.00;82.60;;;;;;4135055;28;20814;-82
2022/04/02 02:30:26;;;;;;;6.10;1.53;;;1.00;82.90;;;;;;4135183;28;20831;-81
2022/04/02 02:32:31;;;;;;;5.10;1.60;;;1.00;83.10;;;;;;4135033;28;20456;-82
2022/04/02 02:36:52;;;;;;;5.17;1.60;;;0.90;82.70;;;;;;4132968;28;20539;-82
2022/04/02 02:38:56;;;;;;;4.80;1.70;;;0.90;82.90;;;;;;4139122;28;20850;-82
2022/04/02 02:40:57;;;;;;;7.43;2.10;;;0.90;82.90;;;;;;4137490;28;20517;-82
2022/04/02 02:42:59;;;;;;;5.00;1.67;;;0.90;83.40;;;;;;4134621;28;20984;-82
2022/04/02 02:45:02;;;;;;;3.70;1.60;;;0.90;84.00;;;;;;4134002;28;20944;-81
2022/04/02 02:47:05;;;;;;;4.77;1.80;;;0.90;83.80;;;;;;4133927;28;20504;-82
2022/04/02 02:49:06;;;;;;;2.83;1.63;;;0.90;83.50;;;;;;4135196;28;20527;-81
2022/04/02 02:51:08;;;;;;;4.37;1.40;;;0.90;83.40;;;;;;4135830;28;20514;-81
2022/04/02 02:53:11;;;;;;;5.57;1.67;;;0.90;83.80;;;;;;4134709;28;20487;-82
2022/04/02 02:55:12;;;;;;;4.90;1.90;;;0.90;84.90;;;;;;4132822;28;20996;-82
2022/04/02 02:57:15;;;;;;;4.47;1.53;;;0.90;85.30;;;;;;4135085;28;20515;-81
2022/04/02 02:59:16;;;;;;;3.50;1.40;;;0.90;85.60;;;;;;4134670;28;20513;-82
2022/04/02 03:01:19;;;;;;;4.23;1.87;;;0.90;85.30;;;;;;4135695;28;20873;-81
2022/04/02 03:03:22;;;;;;;4.63;1.93;;;0.90;84.90;;;;;;4137155;28;20555;-81
2022/04/02 03:05:23;;;;;;;2.47;1.47;;;0.80;84.90;;;;;;4135875;28;20540;-82
2022/04/02 03:07:25;;;;;;;5.80;1.67;;;0.80;85.00;;;;;;4134463;28;20481;-81
2022/04/02 03:09:27;;;;;;;3.27;1.50;;;0.80;85.30;;;;;;4134705;28;20907;-82
2022/04/02 03:11:29;;;;;;;3.70;1.70;;;0.80;85.80;;;;;;4138177;28;20473;-83
2022/04/02 03:13:30;;;;;;;2.97;1.53;;;0.80;86.10;;;;;;4138573;28;20496;-82
2022/04/02 03:15:32;;;;;;;5.37;1.73;;;0.80;86.70;;;;;;4133996;28;20463;-82
2022/04/02 03:17:35;;;;;;;7.73;1.77;;;0.80;87.10;;;;;;4133009;28;20456;-82
2022/04/02 03:19:37;;;;;;;7.00;1.60;;;0.80;87.40;;;;;;4126362;28;20518;-82
2022/04/02 03:21:39;;;;;;;4.33;1.60;;;0.70;88.00;;;;;;4131809;28;20928;-82
2022/04/02 03:23:41;;;;;;;3.60;1.33;;;0.70;88.20;;;;;;4134895;28;20495;-82
2022/04/02 03:25:42;;;;;;;1.77;1.20;;;0.70;89.10;;;;;;4143411;28;20469;-82
2022/04/02 03:27:45;;;;;;;3.57;1.73;;;0.70;89.60;;;;;;4132769;28;20461;-82
2022/04/02 03:29:47;;;;;;;3.60;1.63;;;0.70;90.10;;;;;;4131950;28;20456;-82
2022/04/02 03:31:48;;;;;;;3.63;1.43;;;0.70;90.30;;;;;;4117817;28;20705;-82
2022/04/02 03:33:51;;;;;;;3.70;1.73;;;0.70;90.80;;;;;;4131645;28;21072;-81
2022/04/02 03:35:53;;;;;;;6.47;1.50;;;0.70;91.30;;;;;;4133369;28;20456;-83
2022/04/02 03:37:55;;;;;;;3.13;1.40;;;0.70;91.70;;;;;;4131366;28;20465;-82
2022/04/02 03:39:58;;;;;;;3.10;1.57;;;0.70;92.00;;;;;;4131032;28;20526;-82
2022/04/02 03:42:01;;;;;;;3.40;1.50;;;0.70;92.30;;;;;;4133557;28;20499;-82
2022/04/02 03:44:02;;;;;;;4.77;1.70;;;0.70;92.60;;;;;;4135144;28;20488;-82
2022/04/02 03:48:24;;;;;;;2.73;1.40;;;0.60;93.30;;;;;;4126989;28;20818;-82
2022/04/02 03:50:27;;;;;;;5.17;1.50;;;0.60;93.50;;;;;;4133660;28;20460;-82
2022/04/02 03:52:29;;;;;;;4.47;1.90;;;0.60;93.90;;;;;;4133632;28;20563;-81
2022/04/02 03:54:31;;;;;;;5.57;1.60;;;0.60;94.40;;;;;;4130737;28;20475;-81
2022/04/02 03:56:32;;;;;;;7.27;1.57;;;0.60;94.60;;;;;;4128605;28;20468;-81
2022/04/02 03:58:34;;;;;;;2.60;1.60;;;0.60;95.00;;;;;;4131642;28;20448;-82
2022/04/02 04:00:36;;;;;;;3.93;1.90;;;0.60;95.50;;;;;;4132941;28;20493;-82
2022/04/02 04:02:38;;;;;;;3.70;1.60;;;0.60;96.00;;;;;;4133795;28;20561;-81
2022/04/02 04:04:40;;;;;;;4.17;1.70;;;0.60;96.10;;;;;;4128336;28;20992;-82
2022/04/02 04:06:43;;;;;;;4.43;1.57;;;0.60;96.30;;;;;;4134804;28;20472;-81
2022/04/02 04:08:45;;;;;;;8.27;1.90;;;0.60;96.70;;;;;;4138956;28;20469;-81
2022/04/02 04:10:46;;;;;;;5.43;1.80;;;0.60;97.10;;;;;;4133894;28;20530;-82
2022/04/02 04:12:48;;;;;;;3.03;1.63;;;0.60;97.40;;;;;;4162637;23;20508;-75
2022/04/02 04:14:50;;;;;;;3.20;1.60;;;0.60;98.00;;;;;;4133380;28;20567;-75
2022/04/02 04:16:52;;;;;;;5.83;1.50;;;0.50;98.30;;;;;;4146690;28;20520;-74
2022/04/02 04:18:54;;;;;;;5.70;1.80;;;0.50;98.70;;;;;;4150048;28;20458;-75
2022/04/02 04:20:56;;;;;;;3.27;1.70;;;0.50;99.00;;;;;;4147023;28;20857;-74
2022/04/02 04:23:00;;;;;;;4.30;1.70;;;0.50;99.40;;;;;;4139320;28;21065;-74
2022/04/02 04:25:03;;;;;;;4.23;1.77;;;0.50;99.50;;;;;;4142861;28;20481;-75
2022/04/02 04:27:05;;;;;;;3.53;1.40;;;0.50;99.70;;;;;;4145962;28;20523;-75
2022/04/02 04:29:06;;;;;;;5.47;1.63;;;0.50;99.90;;;;;;4141381;28;20466;-75
2022/04/02 04:31:08;;;;;;;3.07;1.50;;;0.50;99.90;;;;;;4143668;28;20968;-75
2022/04/02 04:33:10;;;;;;;2.67;1.60;;;0.50;99.90;;;;;;4146036;28;20553;-74
2022/04/02 04:35:12;;;;;;;3.33;1.70;;;0.50;99.90;;;;;;4145600;28;20943;-74
2022/04/02 04:37:14;;;;;;;4.73;1.60;;;0.50;99.90;;;;;;4144186;28;20458;-74
2022/04/02 04:39:17;;;;;;;5.50;1.67;;;0.50;99.90;;;;;;4129894;28;20460;-75
2022/04/02 04:41:19;;;;;;;3.93;1.87;;;0.50;99.90;;;;;;4145699;28;20486;-74
2022/04/02 04:43:21;;;;;;;6.07;2.40;;;0.40;99.90;;;;;;4137679;28;20483;-75
2022/04/02 04:45:23;;;;;;;3.20;1.80;;;0.40;99.90;;;;;;4130039;28;20464;-75
2022/04/02 04:47:24;;;;;;;3.37;1.70;;;0.40;99.90;;;;;;4143165;28;20471;-74
2022/04/02 04:49:26;;;;;;;4.10;1.90;;;0.40;99.90;;;;;;4139655;28;20467;-75
2022/04/02 04:51:28;;;;;;;3.97;1.93;;;0.40;99.90;;;;;;4146981;28;20505;-75
2022/04/02 04:53:30;;;;;;;5.33;2.00;;;0.40;99.90;;;;;;4141678;28;20491;-75
2022/04/02 04:55:33;;;;;;;4.53;1.93;;;0.40;99.90;;;;;;4153576;28;20978;-75
2022/04/02 04:57:35;;;;;;;4.47;2.03;;;0.40;99.90;;;;;;4130556;28;20788;-74
2022/04/02 04:59:36;;;;;;;4.90;2.10;;;0.40;99.90;;;;;;4129635;28;20822;-75
2022/04/02 05:01:38;;;;;;;7.40;2.07;;;0.40;99.90;;;;;;4154328;28;21042;-75
2022/04/02 05:03:40;;;;;;;2.90;1.70;;;0.40;99.90;;;;;;4130621;28;20480;-75
2022/04/02 05:05:42;;;;;;;5.30;2.00;;;0.40;99.90;;;;;;4135246;28;20529;-75
2022/04/02 05:07:44;;;;;;;3.87;2.00;;;0.40;99.90;;;;;;4130630;28;20511;-76
2022/04/02 05:09:46;;;;;;;3.93;1.60;;;0.40;99.90;;;;;;4141917;28;20886;-76
2022/04/02 05:11:50;;;;;;;5.47;2.13;;;0.40;99.90;;;;;;4146235;28;20970;-75
2022/04/02 05:13:51;;;;;;;2.90;1.90;;;0.40;99.90;;;;;;4143050;28;20483;-75
2022/04/02 05:15:53;;;;;;;4.87;1.90;;;0.40;99.90;;;;;;4133721;28;20789;-75
2022/04/02 05:17:56;;;;;;;3.13;1.90;;;0.40;99.90;;;;;;4137861;28;20536;-75
2022/04/02 05:19:58;;;;;;;3.03;1.90;;;0.40;99.90;;;;;;4145978;28;20489;-76
2022/04/02 05:22:00;;;;;;;6.23;1.90;;;0.40;99.90;;;;;;4146685;28;20529;-75
2022/04/02 05:24:02;;;;;;;4.00;2.10;;;0.40;99.90;;;;;;4134666;28;20492;-75
2022/04/02 05:26:04;;;;;;;3.90;1.70;;;0.40;99.90;;;;;;4143893;28;20893;-76
2022/04/02 05:28:07;;;;;;;4.33;1.97;;;0.40;99.90;;;;;;4138850;28;20455;-75
2022/04/02 05:30:11;;;;;;;3.20;1.50;;;0.40;99.90;;;;;;4133412;28;20527;-75
2022/04/02 05:32:12;;;;;;;5.67;1.93;;;0.50;99.90;;;;;;4131614;28;20472;-75
2022/04/02 05:34:14;;;;;;;6.00;2.27;;;0.50;99.90;;;;;;4140758;28;20487;-76
2022/04/02 05:36:16;;;;;;;3.93;1.97;;;0.50;99.90;;;;;;4144303;28;20952;-75
2022/04/02 05:38:18;;;;;;;5.93;2.03;;;0.50;99.90;;;;;;4142938;28;20835;-75
2022/04/02 05:40:20;;;;;;;6.17;2.20;;;0.50;99.90;;;;;;4138408;28;20471;-75
2022/04/02 05:42:21;;;;;;;5.10;1.93;;;0.60;99.90;;;;;;4142126;28;20482;-75
2022/04/02 05:44:25;;;;;;;5.30;1.77;;;0.60;99.90;;;;;;4133998;28;20479;-75
2022/04/02 05:46:26;;;;;;;8.27;2.30;;;0.60;99.90;;;;;;4135221;28;20489;-75
2022/04/02 05:48:31;;;;;;;3.77;1.90;;;0.60;99.90;;;;;;4154797;28;20550;-77
2022/04/02 05:50:32;;;;;;;6.93;2.20;;;0.60;99.90;;;;;;4140472;28;20564;-76
2022/04/02 05:52:34;;;;;;;5.63;2.27;;;0.60;99.90;;;;;;4141697;28;20486;-75
2022/04/02 05:54:36;;;;;;;4.57;1.83;;;0.70;99.90;;;;;;4131904;28;20480;-75
2022/04/02 05:56:38;;;;;;;4.40;1.90;;;0.70;99.90;;;;;;4145687;28;20504;-75
2022/04/02 05:58:41;;;;;;;5.93;2.40;;;0.70;99.90;;;;;;4141503;28;20469;-76
2022/04/02 06:00:44;;;;;;;6.03;2.17;;;0.80;99.90;;;;;;4130158;28;21213;-75
2022/04/02 06:02:46;;;;;;;4.37;1.97;;;0.80;99.90;;;;;;4134425;28;20552;-75
2022/04/02 06:04:48;;;;;;;6.17;2.00;;;0.80;99.90;;;;;;4149134;28;20973;-75
2022/04/02 06:06:50;;;;;;;4.03;1.63;;;0.90;99.90;;;;;;4145542;28;20534;-77
2022/04/02 06:08:51;;;;;;;5.00;2.17;;;0.90;99.90;;;;;;4129037;28;20474;-75
2022/04/02 06:10:53;;;;;;;4.90;1.90;;;0.90;99.90;;;;;;4150682;28;20535;-75
2022/04/02 06:12:55;;;;;;;6.07;2.00;;;1.00;99.90;;;;;;4143098;28;20948;-75
2022/04/02 06:14:56;;;;;;;4.10;2.00;;;1.00;99.90;;;;;;4145649;28;20447;-75
2022/04/02 06:16:59;;;;;;;5.60;2.13;;;1.10;99.90;;;;;;4139752;28;20612;-75
2022/04/02 06:19:02;;;;;;;5.93;2.17;;;1.10;99.90;;;;;;4135839;28;20460;-77
2022/04/02 06:21:04;;;;;;;6.33;1.90;;;1.20;99.90;;;;;;4130012;28;20562;-75
2022/04/02 06:23:06;;;;;;;7.37;1.93;;;1.20;99.90;;;;;;4140960;28;20498;-77
2022/04/02 06:25:08;;;;;;;6.40;2.00;;;1.20;99.90;;;;;;4147942;28;20477;-77
2022/04/02 06:27:10;;;;;;;7.90;2.00;;;1.20;99.90;;;;;;4151558;28;20468;-75
2022/04/02 06:29:12;;;;;;;5.50;2.40;;;1.30;99.90;;;;;;4141572;28;20516;-76
2022/04/02 06:31:13;;;;;;;5.20;2.63;;;1.30;99.90;;;;;;4141498;28;20942;-76
2022/04/02 06:33:17;;;;;;;4.33;1.90;;;1.40;99.90;;;;;;4138333;28;20519;-77
2022/04/02 06:35:19;;;;;;;8.97;2.07;;;1.40;99.90;;;;;;4143767;28;20447;-76
2022/04/02 06:37:21;;;;;;;5.37;2.40;;;1.50;99.90;;;;;;4143745;28;20467;-75
2022/04/02 06:39:22;;;;;;;4.63;2.07;;;1.50;99.90;;;;;;4139384;28;20482;-75
2022/04/02 06:41:24;;;;;;;4.13;1.83;;;1.60;99.90;;;;;;4141375;28;20467;-75
2022/04/02 06:43:26;;;;;;;4.57;2.00;;;1.60;99.90;;;;;;4141187;28;20492;-76
2022/04/02 06:45:28;;;;;;;4.37;2.00;;;1.70;99.90;;;;;;4139993;28;20445;-75
2022/04/02 06:47:32;;;;;;;3.27;1.67;;;1.70;99.90;;;;;;4139332;28;20475;-75
2022/04/02 06:49:35;;;;;;;3.83;1.77;;;1.80;99.90;;;;;;4139757;28;20480;-75
2022/04/02 06:51:38;;;;;;;7.53;2.03;;;1.80;99.90;;;;;;4140075;28;20454;-75
2022/04/02 06:53:39;;;;;;;6.37;1.90;;;1.90;99.90;;;;;;4136719;28;20476;-75
2022/04/02 06:55:41;;;;;;;5.70;1.97;;;1.90;99.90;;;;;;4134334;28;20472;-75
2022/04/02 06:57:43;;;;;;;3.67;1.97;;;2.00;99.90;;;;;;4142971;28;21164;-75
2022/04/02 06:59:45;;;;;;;4.67;1.80;;;2.00;99.90;;;;;;4142394;28;20458;-75
2022/04/02 07:01:47;;;;;;;3.60;1.70;;;2.10;99.90;;;;;;4139816;28;20462;-75
2022/04/02 07:03:48;;;;;;;4.33;2.07;;;2.10;99.90;;;;;;4138304;28;20478;-76
2022/04/02 07:05:51;;;;;;;4.17;1.70;;;2.10;99.90;;;;;;4141491;28;20458;-76
2022/04/02 07:07:53;;;;;;;3.53;1.70;;;2.20;99.90;;;;;;4137597;28;20509;-76
2022/04/02 07:09:55;;;;;;;3.80;1.93;;;2.20;99.90;;;;;;4138346;28;20467;-76
2022/04/02 07:11:57;;;;;;;4.90;2.30;;;2.30;99.90;;;;;;4134825;28;20532;-76
2022/04/02 07:14:00;;;;;;;13.60;2.30;;;2.30;99.90;;;;;;4137228;28;20581;-76
2022/04/02 07:16:02;;;;;;;6.27;1.90;;;2.40;99.90;;;;;;4136139;28;20561;-76
2022/04/02 07:18:07;;;;;;;4.03;1.90;;;2.40;99.90;;;;;;4140079;28;20473;-76
2022/04/02 07:20:10;;;;;;;6.43;2.00;;;2.50;99.90;;;;;;4139500;28;20458;-76
2022/04/02 07:22:15;;;;;;;4.73;2.07;;;2.50;99.90;;;;;;4137465;28;20570;-76
2022/04/02 07:24:18;;;;;;;3.97;1.80;;;2.50;99.90;;;;;;4145782;28;20493;-77
2022/04/02 07:26:21;;;;;;;7.17;1.67;;;2.60;99.90;;;;;;4138796;28;20524;-76
2022/04/02 07:28:24;;;;;;;3.80;1.83;;;2.60;99.90;;;;;;4142648;28;20457;-77
2022/04/02 07:30:26;;;;;;;4.63;1.87;;;2.60;99.90;;;;;;4135768;28;20940;-76
2022/04/02 07:32:28;;;;;;;4.37;1.80;;;2.70;99.90;;;;;;4132015;28;20489;-76
2022/04/02 07:34:30;;;;;;;6.67;2.37;;;2.70;99.90;;;;;;4149130;28;20575;-76
2022/04/02 07:36:40;;;;;;;6.13;1.80;;;2.70;99.90;;;;;;4147436;28;20469;-77
2022/04/02 07:38:55;;;;;;;4.57;1.63;;;2.80;99.90;;;;;;4131622;28;20452;-76
2022/04/02 07:41:05;;;;;;;5.47;2.60;;;2.80;99.90;;;;;;4147784;28;20489;-76
2022/04/02 07:43:20;;;;;;;6.73;2.10;;;2.80;99.90;;;;;;4147836;28;20547;-77
2022/04/02 07:45:32;;;;;;;6.37;2.10;;;2.80;99.90;;;;;;4145675;28;20947;-77
2022/04/02 07:47:36;;;;;;;4.87;1.93;;;2.90;99.90;;;;;;4137430;28;20477;-76
2022/04/02 07:49:43;;;;;;;9.37;2.10;;;2.90;99.60;;;;;;4138192;28;20896;-76
2022/04/02 07:51:46;;;;;;;5.67;2.50;;;3.00;99.10;;;;;;4139731;28;20470;-77
2022/04/02 07:53:51;;;;;;;5.30;1.90;;;3.00;98.20;;;;;;4137269;28;20855;-77
2022/04/02 07:55:58;;;;;;;3.83;1.93;;;3.00;97.70;;;;;;4137686;28;20450;-77
2022/04/02 07:58:03;;;;;;;2.57;1.93;;;3.00;97.30;;;;;;4134996;28;20473;-76
2022/04/02 08:00:06;;;;;;;5.07;2.10;;;3.10;96.00;;;;;;4134484;28;20463;-76
2022/04/02 08:02:36;;;;;;;4.40;2.00;;;3.10;95.30;;;;;;4141437;28;20527;-76
2022/04/02 08:04:31;;;;;;;6.80;2.20;;;3.20;94.50;;;;;;4143538;28;20490;-76
2022/04/02 08:06:34;;;;;;;5.77;2.20;;;3.30;93.60;;;;;;4143069;28;20540;-77
2022/04/02 08:08:38;;;;;;;3.47;1.93;;;3.30;92.60;;;;;;4142231;28;20851;-76
2022/04/02 08:10:45;;;;;;;3.23;1.87;;;3.40;91.80;;;;;;4146946;28;21024;-76
2022/04/02 08:12:48;;;;;;;5.30;2.20;;;3.50;91.30;;;;;;4139803;28;20527;-77
2022/04/02 08:14:51;;;;;;;3.60;1.77;;;3.60;90.90;;;;;;4138501;28;20464;-77
2022/04/02 08:16:53;;;;;;;4.23;1.70;;;3.70;89.50;;;;;;4147497;28;20471;-76
2022/04/02 08:18:57;;;;;;;2.63;1.60;;;3.80;88.70;;;;;;4154344;28;20489;-77
2022/04/02 08:20:58;;;;;;;6.30;2.40;;;4.00;84.40;;;;;;4142438;28;20455;-77
2022/04/02 08:23:01;;;;;;;4.93;1.83;;;4.10;82.80;;;;;;4137371;28;20532;-77
2022/04/02 08:25:04;;;;;;;5.67;2.47;;;4.20;80.00;;;;;;4143936;28;20473;-76
2022/04/02 08:27:16;;;;;;;6.20;1.83;;;4.30;77.60;;;;;;4149369;28;20471;-77
2022/04/02 08:29:30;;;;;;;8.37;2.00;;;4.40;74.40;;;;;;4141747;28;20482;-77
2022/04/02 08:31:42;;;;;;;6.37;2.10;;;4.50;73.00;;;;;;4146284;28;20481;-74
2022/04/02 08:33:50;;;;;;;4.00;2.23;;;4.60;71.90;;;;;;4146124;28;20838;-76
2022/04/02 08:36:01;;;;;;;3.20;1.80;;;4.70;67.60;;;;;;4142582;28;20467;-76
2022/04/02 08:38:12;;;;;;;4.27;1.90;;;4.70;64.90;;;;;;4139777;28;20443;-76
2022/04/02 08:40:56;;;;;;;3.50;1.60;;;4.70;61.80;;;;;;4135828;28;20471;-77
2022/04/02 08:43:37;;;;;;;5.03;1.90;;;4.80;59.90;;;;;;4089597;28;20497;-75
2022/04/02 08:45:56;;;;;;;5.07;1.63;;;4.90;58.40;;;;;;4123087;28;20479;-78
2022/04/02 08:48:26;;;;;;;3.30;1.70;;;4.90;57.70;;;;;;4144915;28;20451;-78
2022/04/02 08:50:34;;;;;;;5.07;1.70;;;5.10;57.50;;;;;;4136650;28;20480;-76
2022/04/02 08:52:51;;;;;;;4.93;1.70;;;5.10;57.70;;;;;;4134706;28;20847;-76
2022/04/02 08:55:09;;;;;;;4.53;1.97;;;5.20;57.50;;;;;;4131048;28;20463;-77
2022/04/02 08:57:23;;;;;;;2.83;1.83;;;5.30;56.70;;;;;;4142574;28;20474;-77
2022/04/02 08:59:35;;;;;;;4.57;1.90;;;5.30;56.70;;;;;;4141282;28;20477;-78
2022/04/02 09:01:43;;;;;;;5.10;2.30;;;5.40;57.00;;;;;;4133175;28;20447;-80
2022/04/02 09:04:38;;;;;;;4.80;2.03;;;5.50;56.20;;;;;;4144875;28;20497;-80
2022/04/02 09:07:00;;;;;;;4.73;1.87;;;5.50;55.90;;;;;;4139974;28;20550;-80
2022/04/02 09:09:06;;;;;;;9.80;2.30;;;5.50;55.00;;;;;;4147606;28;20462;-76
2022/04/02 09:11:25;;;;;;;5.23;1.90;;;5.50;54.90;;;;;;4135264;28;20483;-77
2022/04/02 09:14:06;;;;;;;5.27;2.00;;;5.50;54.80;;;;;;4141176;28;20554;-76
2022/04/02 09:16:10;;;;;;;5.33;2.00;;;5.50;54.60;;;;;;4141793;28;20470;-76
2022/04/02 09:18:29;;;;;;;8.40;1.90;;;5.50;54.60;;;;;;4137868;28;20474;-76
2022/04/02 09:20:44;;;;;;;2.60;1.63;;;5.50;54.60;;;;;;4142375;28;20498;-77
2022/04/02 09:23:00;;;;;;;5.20;1.93;;;5.60;54.60;;;;;;4135861;28;20577;-76
2022/04/02 09:25:46;;;;;;;2.67;1.70;;;5.60;54.00;;;;;;4137517;28;20460;-77
2022/04/02 09:28:30;;;;;;;2.73;1.30;;;5.60;53.60;;;;;;4141816;28;20475;-77
2022/04/02 09:30:51;;;;;;;4.00;1.87;;;5.80;53.10;;;;;;4126249;28;20526;-78
2022/04/02 09:33:22;;;;;;;3.40;1.70;;;5.90;52.90;;;;;;4138721;28;20482;-79
2022/04/02 09:35:57;;;;;;;7.97;1.80;;;5.90;52.30;;;;;;4134016;28;20459;-77
2022/04/02 09:38:27;;;;;;;5.13;1.70;;;6.00;51.90;;;;;;4140708;28;21023;-78
2022/04/02 09:40:37;;;;;;;120.17;6.20;;;6.00;51.90;;;;;;4135563;28;20475;-76
2022/04/02 09:42:41;;;;;;;166.57;9.77;;;6.10;52.10;;;;;;4143267;28;21015;-80
2022/04/02 09:44:58;;;;;;;39.60;2.80;;;6.20;52.00;;;;;;4142573;28;20494;-80
2022/04/02 09:47:05;;;;;;;8.07;2.10;;;6.20;51.20;;;;;;4137499;28;20980;-78
2022/04/02 09:49:20;;;;;;;4.07;1.47;;;6.30;51.20;;;;;;4142496;28;20533;-77
2022/04/02 09:51:26;;;;;;;3.50;1.67;;;6.40;50.70;;;;;;4137795;28;20490;-79
2022/04/02 09:53:29;;;;;;;6.53;1.80;;;6.50;50.50;;;;;;4136852;28;20540;-78
2022/04/02 09:55:45;;;;;;;4.37;1.67;;;6.60;50.10;;;;;;4139105;28;20468;-79
2022/04/02 09:58:07;;;;;;;4.60;1.70;;;6.70;49.60;;;;;;4139934;28;20501;-79
2022/04/02 10:00:10;;;;;;;3.57;1.50;;;6.80;49.50;;;;;;4143412;28;20463;-79
2022/04/02 10:02:25;;;;;;;5.17;1.53;;;6.90;48.60;;;;;;4144333;28;20524;-79
2022/04/02 10:04:41;;;;;;;3.90;1.67;;;7.00;48.20;;;;;;4138154;28;20995;-79
2022/04/02 10:06:47;;;;;;;4.23;1.63;;;7.10;47.90;;;;;;4145016;28;20460;-79
2022/04/02 10:09:05;;;;;;;4.03;2.00;;;7.20;47.70;;;;;;4142740;28;20879;-78
2022/04/02 10:11:09;;;;;;;1.57;1.33;;;7.20;47.20;;;;;;4140163;28;20451;-78
2022/04/02 10:13:13;;;;;;;4.30;1.40;;;7.30;46.90;;;;;;4146039;28;20565;-77
2022/04/02 10:15:19;;;;;;;5.10;1.40;;;7.30;46.60;;;;;;4140380;28;20988;-77
2022/04/02 10:17:25;;;;;;;6.47;1.30;;;7.40;46.40;;;;;;4141469;28;20821;-78
2022/04/02 10:19:29;;;;;;;3.50;1.50;;;7.40;46.40;;;;;;4145934;28;20463;-78
2022/04/02 10:21:35;;;;;;;2.93;1.60;;;7.50;46.10;;;;;;4140696;28;20469;-78
2022/04/02 10:23:38;;;;;;;3.43;1.63;;;7.50;45.90;;;;;;4135803;28;20529;-78
2022/04/02 10:25:51;;;;;;;5.80;1.73;;;7.60;45.80;;;;;;4141838;28;20556;-77
2022/04/02 10:27:55;;;;;;;3.50;1.60;;;7.60;45.80;;;;;;4143418;28;20464;-76
2022/04/02 10:30:07;;;;;;;5.50;1.70;;;7.60;45.30;;;;;;4144225;28;20459;-77
2022/04/02 10:32:22;;;;;;;5.57;1.60;;;7.60;45.30;;;;;;4145994;28;20561;-78
2022/04/02 10:34:37;;;;;;;6.60;2.30;;;7.60;45.20;;;;;;4147770;28;20630;-75
2022/04/02 10:36:45;;;;;;;6.13;1.87;;;7.70;45.60;;;;;;4142588;28;20472;-75
2022/04/02 10:38:51;;;;;;;4.23;2.10;;;7.80;45.60;;;;;;4139329;28;20468;-76
2022/04/02 10:40:54;;;;;;;4.23;1.90;;;7.80;45.10;;;;;;4141030;28;20836;-77
2022/04/02 10:43:03;;;;;;;2.40;1.50;;;7.90;44.50;;;;;;4148384;28;20460;-81
2022/04/02 10:45:07;;;;;;;4.77;1.60;;;7.90;44.30;;;;;;4138935;28;20524;-76
2022/04/02 10:47:13;;;;;;;3.67;1.50;;;7.90;44.10;;;;;;4134211;28;20519;-76
2022/04/02 10:49:21;;;;;;;8.13;2.00;;;7.90;44.10;;;;;;4141117;28;20504;-77
2022/04/02 10:51:25;;;;;;;5.03;1.87;;;8.00;43.90;;;;;;4142887;28;20527;-76
2022/04/02 10:53:32;;;;;;;6.80;1.73;;;8.10;44.10;;;;;;4147715;28;20478;-76
2022/04/02 10:55:34;;;;;;;3.87;1.60;;;8.10;44.40;;;;;;4150221;28;20950;-77
2022/04/02 10:57:35;;;;;;;7.23;1.77;;;8.10;44.50;;;;;;4156065;28;20826;-76
2022/04/02 10:59:39;;;;;;;5.70;1.53;;;8.10;44.70;;;;;;4137807;28;20470;-76
2022/04/02 11:01:43;;;;;;;5.37;1.83;;;8.10;44.50;;;;;;4135909;28;21014;-77
2022/04/02 11:03:53;;;;;;;3.27;1.60;;;8.20;44.30;;;;;;4134348;28;20497;-77
2022/04/02 11:05:55;;;;;;;3.93;1.97;;;8.30;44.00;;;;;;4157316;28;20476;-77